Time;durP1;ratioP1;P1;durP2;ratioP2;P2;SDS_P1;SDS_P2;PMS_P1;PMS_P2;Temp;Humidity;BMP_temperature;BMP_pressure;BME280_temperature;BME280_humidity;BME280_pressure;Samples;Min_cycle;Max_cycle;Signal;HPM_P1;HPM_P2
2024/02/08 00:01:39;;;;;;;11.40;5.38;;;;;;;;;;5000880;28;20061;-74
2024/02/08 00:04:06;;;;;;;15.13;5.07;;;;;;;;;;5001281;28;20064;-74
2024/02/08 00:06:32;;;;;;;20.20;5.85;;;;;;;;;;4988832;28;20141;-74
2024/02/08 00:09:00;;;;;;;14.27;4.50;;;;;;;;;;5000938;28;20050;-74
2024/02/08 00:11:27;;;;;;;11.73;4.67;;;;;;;;;;4978189;28;20060;-75
2024/02/08 00:13:54;;;;;;;7.97;4.53;;;;;;;;;;5000964;28;20123;-75
2024/02/08 00:16:20;;;;;;;14.85;4.85;;;;;;;;;;4983376;28;20392;-75
2024/02/08 00:18:47;;;;;;;11.50;5.07;;;;;;;;;;5000055;28;20054;-76
2024/02/08 00:21:14;;;;;;;12.13;5.00;;;;;;;;;;5001597;28;20050;-75
2024/02/08 00:23:40;;;;;;;11.27;4.70;;;;;;;;;;5001836;28;20048;-74
2024/02/08 00:26:07;;;;;;;11.48;5.20;;;;;;;;;;5002071;28;20050;-74
2024/02/08 00:28:33;;;;;;;10.18;4.43;;;;;;;;;;4994253;28;20057;-75
2024/02/08 00:31:00;;;;;;;14.25;4.50;;;;;;;;;;4999344;28;20062;-75
2024/02/08 00:33:26;;;;;;;12.77;4.90;;;;;;;;;;4994693;28;20074;-75
2024/02/08 00:35:53;;;;;;;12.60;5.25;;;;;;;;;;4998428;28;20726;-75
2024/02/08 00:38:19;;;;;;;11.98;4.72;;;;;;;;;;4997096;28;20065;-75
2024/02/08 00:40:46;;;;;;;12.20;4.28;;;;;;;;;;4993565;28;20050;-75
2024/02/08 00:43:13;;;;;;;12.55;5.25;;;;;;;;;;4995152;28;20058;-74
2024/02/08 00:45:39;;;;;;;13.35;5.65;;;;;;;;;;4997102;28;20603;-75
2024/02/08 00:48:06;;;;;;;11.32;4.50;;;;;;;;;;5001282;28;20049;-74
2024/02/08 00:50:32;;;;;;;11.73;5.40;;;;;;;;;;4984693;28;20078;-74
2024/02/08 00:53:00;;;;;;;12.40;4.90;;;;;;;;;;5000039;28;20128;-75
2024/02/08 00:55:29;;;;;;;11.18;5.10;;;;;;;;;;5002042;28;20057;-74
2024/02/08 00:57:56;;;;;;;18.23;5.20;;;;;;;;;;4995704;28;20046;-75
2024/02/08 01:00:22;;;;;;;13.52;4.82;;;;;;;;;;4984907;28;20476;-75
2024/02/08 01:02:49;;;;;;;15.63;4.97;;;;;;;;;;4991699;28;20053;-75
2024/02/08 01:05:15;;;;;;;11.23;4.82;;;;;;;;;;5005357;28;20049;-75
2024/02/08 01:07:42;;;;;;;18.17;5.43;;;;;;;;;;4981791;28;20137;-74
2024/02/08 01:10:08;;;;;;;13.32;5.10;;;;;;;;;;4977461;28;20085;-75
2024/02/08 01:12:35;;;;;;;15.75;5.38;;;;;;;;;;4999777;28;20130;-72
2024/02/08 01:15:02;;;;;;;12.77;4.47;;;;;;;;;;4984122;28;20670;-72
2024/02/08 01:17:28;;;;;;;16.10;4.68;;;;;;;;;;4988674;28;20061;-74
2024/02/08 01:20:00;;;;;;;15.43;4.90;;;;;;;;;;4988141;28;20066;-72
2024/02/08 01:22:27;;;;;;;13.52;5.10;;;;;;;;;;5007120;28;20058;-71
2024/02/08 01:24:55;;;;;;;12.25;4.95;;;;;;;;;;4998713;28;20054;-72
2024/02/08 01:27:21;;;;;;;15.48;4.85;;;;;;;;;;5005641;28;20054;-72
2024/02/08 01:29:49;;;;;;;10.02;4.15;;;;;;;;;;4989391;28;20046;-71
2024/02/08 01:32:17;;;;;;;10.80;4.47;;;;;;;;;;5001719;28;20046;-71
2024/02/08 01:34:47;;;;;;;12.32;4.57;;;;;;;;;;4991345;28;20705;-71
2024/02/08 01:37:14;;;;;;;17.35;5.10;;;;;;;;;;4986592;28;20060;-73
2024/02/08 01:39:41;;;;;;;13.32;5.28;;;;;;;;;;4988795;28;20133;-72
2024/02/08 01:42:14;;;;;;;10.07;5.00;;;;;;;;;;4991811;28;20053;-71
2024/02/08 01:44:45;;;;;;;12.38;5.10;;;;;;;;;;5001762;28;20566;-72
2024/02/08 01:47:12;;;;;;;10.43;4.13;;;;;;;;;;5005806;28;20046;-71
2024/02/08 01:49:38;;;;;;;13.50;4.93;;;;;;;;;;4981024;28;20149;-71
2024/02/08 01:52:05;;;;;;;12.80;4.50;;;;;;;;;;4990023;28;20045;-71
2024/02/08 01:54:32;;;;;;;10.25;4.13;;;;;;;;;;5009222;28;20045;-71
2024/02/08 01:56:59;;;;;;;11.05;4.10;;;;;;;;;;5002761;28;20054;-71
2024/02/08 01:59:27;;;;;;;11.25;4.18;;;;;;;;;;5009526;28;20041;-72
2024/02/08 02:01:56;;;;;;;9.75;4.10;;;;;;;;;;5003880;28;20086;-71
2024/02/08 02:04:22;;;;;;;;;;;;;;;;;;4996176;28;20054;-71
2024/02/08 02:06:48;;;;;;;9.68;4.10;;;;;;;;;;4987178;28;20980;-70
2024/02/08 02:09:25;;;;;;;10.20;3.97;;;;;;;;;;4970917;28;20109;-70
2024/02/08 02:11:52;;;;;;;15.38;4.95;;;;;;;;;;4992755;28;20049;-70
2024/02/08 02:14:18;;;;;;;13.90;5.25;;;;;;;;;;4996508;28;20042;-71
2024/02/08 02:16:46;;;;;;;14.20;5.07;;;;;;;;;;4995042;28;20066;-70
2024/02/08 02:19:13;;;;;;;11.23;5.13;;;;;;;;;;4998809;28;20104;-73
2024/02/08 02:21:39;;;;;;;16.20;5.15;;;;;;;;;;4988973;28;20732;-71
2024/02/08 02:24:07;;;;;;;10.18;4.72;;;;;;;;;;4996483;28;20759;-73
2024/02/08 02:26:35;;;;;;;14.25;5.22;;;;;;;;;;4987328;28;20080;-74
2024/02/08 02:29:03;;;;;;;12.05;4.97;;;;;;;;;;4995933;28;20057;-74
2024/02/08 02:31:32;;;;;;;12.30;4.47;;;;;;;;;;4981029;28;20058;-74
2024/02/08 02:33:59;;;;;;;12.25;4.78;;;;;;;;;;4990886;28;20057;-74
2024/02/08 02:36:26;;;;;;;14.15;4.30;;;;;;;;;;4989263;28;20061;-74
2024/02/08 02:38:52;;;;;;;13.77;4.78;;;;;;;;;;4988208;28;20104;-74
2024/02/08 02:41:19;;;;;;;9.77;4.07;;;;;;;;;;4998294;28;20081;-74
2024/02/08 02:43:46;;;;;;;12.93;4.80;;;;;;;;;;4991456;28;20050;-73
2024/02/08 02:46:12;;;;;;;8.93;4.10;;;;;;;;;;4979073;28;20050;-74
2024/02/08 02:48:40;;;;;;;10.52;4.53;;;;;;;;;;4988349;28;20499;-74
2024/02/08 02:51:11;;;;;;;12.15;4.50;;;;;;;;;;5000797;28;20042;-74
2024/02/08 02:53:39;;;;;;;7.78;3.83;;;;;;;;;;5007724;28;20129;-74
2024/02/08 02:56:11;;;;;;;15.07;5.15;;;;;;;;;;4975754;28;20108;-74
2024/02/08 02:58:38;;;;;;;10.95;4.45;;;;;;;;;;4972636;28;20053;-74
2024/02/08 03:01:05;;;;;;;14.00;4.30;;;;;;;;;;4990405;28;20145;-74
2024/02/08 03:03:37;;;;;;;12.38;4.35;;;;;;;;;;4999029;28;20396;-74
2024/02/08 03:06:13;;;;;;;7.15;3.53;;;;;;;;;;4994162;28;20046;-74
2024/02/08 03:08:41;;;;;;;9.55;3.85;;;;;;;;;;4980822;28;20056;-74
2024/02/08 03:11:10;;;;;;;11.57;3.90;;;;;;;;;;5000702;28;20038;-73
2024/02/08 03:13:38;;;;;;;13.32;4.28;;;;;;;;;;4995611;28;20049;-74
2024/02/08 03:16:05;;;;;;;8.65;3.85;;;;;;;;;;5003194;28;20061;-74
2024/02/08 03:18:32;;;;;;;12.93;4.22;;;;;;;;;;4979424;28;20041;-74
2024/02/08 03:21:01;;;;;;;11.30;3.85;;;;;;;;;;4984552;28;20129;-74
2024/02/08 03:23:27;;;;;;;13.18;3.90;;;;;;;;;;4980196;28;20046;-73
2024/02/08 03:25:56;;;;;;;10.50;4.03;;;;;;;;;;4992511;28;20068;-74
2024/02/08 03:28:23;;;;;;;13.18;3.95;;;;;;;;;;4995040;28;20060;-74
2024/02/08 03:30:56;;;;;;;8.15;3.85;;;;;;;;;;4987734;28;20050;-74
2024/02/08 03:33:22;;;;;;;8.52;4.15;;;;;;;;;;5001825;28;20046;-74
2024/02/08 03:35:53;;;;;;;9.20;4.00;;;;;;;;;;4990316;28;20476;-74
2024/02/08 03:38:20;;;;;;;12.23;3.65;;;;;;;;;;5000157;28;20480;-74
2024/02/08 03:40:46;;;;;;;7.38;2.92;;;;;;;;;;4992877;28;20121;-75
2024/02/08 03:43:15;;;;;;;9.65;3.53;;;;;;;;;;4997060;28;20038;-74
2024/02/08 03:45:43;;;;;;;9.93;3.28;;;;;;;;;;5003188;28;20174;-74
2024/02/08 03:48:10;;;;;;;10.55;3.75;;;;;;;;;;4996599;28;20100;-75
2024/02/08 03:50:39;;;;;;;14.40;3.60;;;;;;;;;;4982139;28;20043;-74
2024/02/08 03:53:14;;;;;;;9.33;3.10;;;;;;;;;;4982638;28;20625;-73
2024/02/08 03:55:44;;;;;;;13.15;3.17;;;;;;;;;;4987011;28;20427;-74
2024/02/08 03:58:13;;;;;;;10.65;3.70;;;;;;;;;;4995575;28;20054;-74
2024/02/08 04:00:46;;;;;;;12.73;3.55;;;;;;;;;;4978477;28;20995;-74
2024/02/08 04:03:43;;;;;;;6.45;2.90;;;;;;;;;;5003720;28;20049;-74
2024/02/08 04:06:16;;;;;;;6.40;2.75;;;;;;;;;;4992124;28;20104;-74
2024/02/08 04:09:06;;;;;;;9.23;3.95;;;;;;;;;;4983908;28;20050;-74
2024/02/08 04:55:46;;;;;;;12.18;4.63;;;;;;;;;;4996130;28;20086;-74
2024/02/08 04:58:12;;;;;;;11.05;3.88;;;;;;;;;;4968807;28;20046;-75
2024/02/08 05:01:01;;;;;;;10.50;4.93;;;;;;;;;;5000741;28;20050;-75
2024/02/08 05:03:28;;;;;;;19.27;5.63;;;;;;;;;;4984527;28;20050;-75
2024/02/08 05:05:55;;;;;;;12.73;5.10;;;;;;;;;;4997424;28;20105;-75
2024/02/08 05:08:24;;;;;;;12.35;5.45;;;;;;;;;;4983958;28;20570;-74
2024/02/08 05:10:52;;;;;;;15.77;5.13;;;;;;;;;;4975532;28;20054;-74
2024/02/08 05:13:24;;;;;;;16.27;5.80;;;;;;;;;;5002442;28;20508;-75
2024/02/08 05:15:51;;;;;;;11.50;5.95;;;;;;;;;;4988702;28;20125;-74
2024/02/08 05:18:21;;;;;;;17.90;6.25;;;;;;;;;;4997545;28;20053;-75
2024/02/08 05:20:48;;;;;;;18.52;6.50;;;;;;;;;;4992282;28;20105;-75
2024/02/08 05:23:15;;;;;;;12.90;6.22;;;;;;;;;;5002336;28;20053;-75
2024/02/08 05:25:44;;;;;;;14.10;6.30;;;;;;;;;;5000321;28;20050;-74
2024/02/08 05:28:12;;;;;;;13.75;6.35;;;;;;;;;;4999967;28;20049;-75
2024/02/08 05:30:39;;;;;;;;;;;;;;;;;;4996753;28;20405;-75
2024/02/08 05:33:05;;;;;;;18.88;8.68;;;;;;;;;;4996219;28;19925;-74
2024/02/08 05:35:32;;;;;;;22.08;9.27;;;;;;;;;;5001788;28;20698;-75
2024/02/08 05:38:00;;;;;;;15.50;6.88;;;;;;;;;;4989022;28;20451;-75
2024/02/08 05:40:30;;;;;;;17.88;7.45;;;;;;;;;;4997147;28;20053;-75
2024/02/08 05:42:58;;;;;;;15.13;6.70;;;;;;;;;;4994649;28;20101;-74
2024/02/08 05:45:30;;;;;;;14.38;7.25;;;;;;;;;;4992715;28;20054;-75
2024/02/08 05:48:05;;;;;;;15.90;7.03;;;;;;;;;;4990713;28;20046;-75
2024/02/08 05:50:32;;;;;;;14.52;7.18;;;;;;;;;;4993537;28;20553;-75
2024/02/08 05:53:06;;;;;;;31.67;7.47;;;;;;;;;;4995190;28;20057;-72
2024/02/08 05:55:39;;;;;;;14.02;6.65;;;;;;;;;;5007048;28;20097;-71
2024/02/08 05:58:06;;;;;;;16.75;7.18;;;;;;;;;;4982284;28;20054;-73
2024/02/08 06:00:36;;;;;;;14.10;6.40;;;;;;;;;;4988212;28;20096;-71
2024/02/08 06:03:03;;;;;;;15.63;7.15;;;;;;;;;;4988622;28;20585;-73
2024/02/08 06:05:33;;;;;;;18.45;8.07;;;;;;;;;;5007877;28;20487;-72
2024/02/08 06:07:59;;;;;;;17.33;7.30;;;;;;;;;;4998111;28;20046;-71
2024/02/08 06:10:42;;;;;;;16.52;6.85;;;;;;;;;;5000184;28;20046;-71
2024/02/08 06:13:13;;;;;;;19.05;8.40;;;;;;;;;;4998248;28;20539;-71
2024/02/08 06:15:53;;;;;;;17.48;7.93;;;;;;;;;;4980400;28;20050;-71
2024/02/08 06:18:20;;;;;;;14.40;7.55;;;;;;;;;;4996206;28;20053;-72
2024/02/08 06:20:51;;;;;;;22.77;9.30;;;;;;;;;;4995141;28;20077;-72
2024/02/08 06:23:26;;;;;;;18.65;8.18;;;;;;;;;;5006629;28;20056;-71
2024/02/08 06:26:28;;;;;;;13.70;6.53;;;;;;;;;;4991742;28;20046;-72
2024/02/08 06:28:46;;;;;;;14.55;7.38;;;;;;;;;;4995954;28;20042;-72
2024/02/08 06:31:15;;;;;;;21.50;9.48;;;;;;;;;;5005609;28;20054;-71
2024/02/08 06:33:59;;;;;;;17.15;8.23;;;;;;;;;;4992780;28;20084;-71
2024/02/08 06:36:27;;;;;;;17.50;7.95;;;;;;;;;;5006866;28;20058;-71
2024/02/08 06:38:53;;;;;;;12.02;7.45;;;;;;;;;;5002725;28;20054;-73
2024/02/08 06:47:54;;;;;;;14.90;7.32;;;;;;;;;;4927701;29;20064;-71
2024/02/08 07:37:19;;;;;;;19.23;8.50;;;;;;;;;;4995163;28;20628;-74
2024/02/08 07:40:00;;;;;;;16.98;8.63;;;;;;;;;;5004729;28;20653;-74
2024/02/08 07:42:32;;;;;;;20.48;8.48;;;;;;;;;;5000703;28;20050;-74
2024/02/08 07:45:04;;;;;;;17.00;7.72;;;;;;;;;;5004620;28;20487;-74
2024/02/08 07:47:33;;;;;;;14.88;7.93;;;;;;;;;;4991439;28;20057;-75
2024/02/08 07:50:09;;;;;;;20.42;8.18;;;;;;;;;;4993488;28;20131;-75
2024/02/08 07:52:45;;;;;;;15.23;7.65;;;;;;;;;;4982541;28;20050;-75
2024/02/08 07:55:46;;;;;;;14.93;7.40;;;;;;;;;;4982339;28;20046;-74
2024/02/08 07:58:08;;;;;;;23.08;7.93;;;;;;;;;;4989203;28;20050;-75
2024/02/08 08:03:07;;;;;;;22.38;7.47;;;;;;;;;;4995138;28;20057;-74
2024/02/08 08:05:44;;;;;;;18.30;7.60;;;;;;;;;;4978994;28;20086;-75
2024/02/08 08:08:32;;;;;;;18.92;7.50;;;;;;;;;;4997097;28;20081;-75
2024/02/08 08:11:03;;;;;;;18.35;7.95;;;;;;;;;;5005204;28;20050;-75
2024/02/08 08:19:08;;;;;;;20.52;7.43;;;;;;;;;;4982448;28;20126;-74
2024/02/08 08:24:28;;;;;;;19.70;7.88;;;;;;;;;;4997362;28;20137;-75
2024/02/08 08:27:07;;;;;;;16.50;6.90;;;;;;;;;;4991541;28;20504;-75
2024/02/08 08:29:42;;;;;;;14.13;6.05;;;;;;;;;;4995331;28;20056;-75
2024/02/08 08:37:48;;;;;;;16.70;6.22;;;;;;;;;;5002374;28;20049;-75
2024/02/08 08:40:23;;;;;;;17.30;7.20;;;;;;;;;;4988613;28;20104;-75
2024/02/08 08:42:50;;;;;;;17.85;6.38;;;;;;;;;;4986756;28;20544;-75
2024/02/08 08:45:18;;;;;;;17.75;6.47;;;;;;;;;;4986172;28;20058;-75
2024/02/08 08:47:45;;;;;;;12.38;6.53;;;;;;;;;;4998561;28;20046;-75
2024/02/08 08:50:17;;;;;;;15.07;6.55;;;;;;;;;;5001793;28;20104;-75
2024/02/08 08:52:49;;;;;;;14.73;5.95;;;;;;;;;;4989640;28;20071;-75
2024/02/08 08:55:19;;;;;;;19.00;5.78;;;;;;;;;;4980071;28;20043;-75
2024/02/08 08:57:53;;;;;;;14.20;5.43;;;;;;;;;;5001382;28;20057;-75
2024/02/08 09:00:31;;;;;;;12.85;5.03;;;;;;;;;;4983761;28;20048;-75
2024/02/08 09:02:59;;;;;;;16.05;6.00;;;;;;;;;;4991418;28;20074;-74
2024/02/08 09:05:31;;;;;;;16.73;6.53;;;;;;;;;;4976473;28;20046;-75
2024/02/08 09:07:59;;;;;;;19.30;6.43;;;;;;;;;;4996028;28;20077;-75
2024/02/08 09:10:34;;;;;;;19.30;6.18;;;;;;;;;;5006504;28;20054;-74
2024/02/08 09:13:06;;;;;;;17.00;5.68;;;;;;;;;;4997981;28;20056;-75
2024/02/08 09:18:35;;;;;;;16.83;6.40;;;;;;;;;;4964550;28;20826;-75
2024/02/08 09:21:05;;;;;;;12.88;6.45;;;;;;;;;;4976131;28;20547;-75
2024/02/08 09:23:36;;;;;;;12.30;5.18;;;;;;;;;;4995117;28;20104;-72
2024/02/08 09:26:05;;;;;;;13.55;6.25;;;;;;;;;;4993432;28;20100;-72
2024/02/08 09:28:42;;;;;;;17.52;6.18;;;;;;;;;;5006312;28;20041;-72
2024/02/08 09:31:12;;;;;;;17.70;5.57;;;;;;;;;;5004821;28;20104;-71
2024/02/08 09:33:50;;;;;;;13.55;6.40;;;;;;;;;;4990671;28;20042;-72
2024/02/08 09:36:17;;;;;;;15.52;6.20;;;;;;;;;;4990302;28;20112;-73
2024/02/08 09:38:44;;;;;;;20.05;5.60;;;;;;;;;;5003685;28;20105;-73
2024/02/08 09:41:15;;;;;;;18.60;5.85;;;;;;;;;;4979158;28;20050;-73
2024/02/08 09:43:44;;;;;;;17.02;6.28;;;;;;;;;;4985923;28;20053;-72
2024/02/08 09:46:28;;;;;;;18.13;5.60;;;;;;;;;;5006867;28;20054;-72
2024/02/08 09:48:59;;;;;;;17.42;6.57;;;;;;;;;;5001188;28;20550;-72
2024/02/08 09:51:26;;;;;;;21.90;6.00;;;;;;;;;;5006621;28;20527;-72
2024/02/08 09:53:54;;;;;;;17.27;5.88;;;;;;;;;;4998915;28;20050;-72
2024/02/08 09:56:37;;;;;;;20.65;6.35;;;;;;;;;;4980425;28;20573;-72
2024/02/08 09:59:07;;;;;;;16.55;5.15;;;;;;;;;;4969795;28;20050;-73
2024/02/08 10:01:44;;;;;;;12.07;5.60;;;;;;;;;;4985116;28;20078;-74
2024/02/08 10:04:16;;;;;;;16.10;6.18;;;;;;;;;;4987640;28;20050;-72
2024/02/08 10:07:05;;;;;;;18.23;6.90;;;;;;;;;;4991925;28;20397;-72
2024/02/08 10:09:37;;;;;;;11.97;6.20;;;;;;;;;;4999351;28;20049;-72
2024/02/08 10:12:07;;;;;;;18.02;6.60;;;;;;;;;;4987669;28;20052;-73
2024/02/08 10:14:41;;;;;;;19.63;6.50;;;;;;;;;;5005241;28;20060;-71
2024/02/08 10:17:15;;;;;;;14.10;6.60;;;;;;;;;;4992863;28;20050;-72
2024/02/08 10:22:56;;;;;;;24.58;7.18;;;;;;;;;;4994775;28;20053;-71
2024/02/08 10:28:21;;;;;;;16.02;6.45;;;;;;;;;;5001225;28;20670;-71
2024/02/08 10:30:59;;;;;;;10.85;5.68;;;;;;;;;;4994275;28;20111;-72
2024/02/08 10:33:35;;;;;;;18.13;5.85;;;;;;;;;;4999314;28;20522;-74
2024/02/08 10:36:08;;;;;;;17.55;6.20;;;;;;;;;;4992749;28;20050;-74
2024/02/08 10:44:22;;;;;;;22.17;7.63;;;;;;;;;;4988395;28;20062;-74
2024/02/08 10:46:49;;;;;;;16.42;6.85;;;;;;;;;;4981332;28;20108;-74
2024/02/08 10:49:16;;;;;;;11.32;6.18;;;;;;;;;;4975630;28;20408;-74
2024/02/08 10:51:45;;;;;;;19.08;7.78;;;;;;;;;;4996164;28;20050;-74
2024/02/08 10:54:15;;;;;;;17.58;7.13;;;;;;;;;;5000319;28;20045;-74
2024/02/08 10:56:48;;;;;;;20.10;7.90;;;;;;;;;;4977738;28;20054;-74
2024/02/08 10:59:20;;;;;;;19.80;7.88;;;;;;;;;;4996043;28;20050;-74
2024/02/08 11:04:20;;;;;;;17.10;6.88;;;;;;;;;;4995065;28;20060;-74
2024/02/08 11:06:54;;;;;;;16.50;6.80;;;;;;;;;;4983405;28;20065;-74
2024/02/08 11:09:22;;;;;;;18.25;7.00;;;;;;;;;;4986429;28;20056;-74
2024/02/08 11:11:56;;;;;;;23.52;7.55;;;;;;;;;;4987182;28;20053;-74
2024/02/08 11:14:23;;;;;;;24.52;8.40;;;;;;;;;;5003656;28;20640;-74
2024/02/08 11:16:51;;;;;;;19.05;7.07;;;;;;;;;;5001357;28;20124;-74
2024/02/08 11:19:19;;;;;;;19.15;7.13;;;;;;;;;;5002410;28;20665;-74
2024/02/08 11:21:49;;;;;;;17.02;7.03;;;;;;;;;;4990552;28;20053;-74
2024/02/08 11:24:27;;;;;;;19.23;7.45;;;;;;;;;;4965189;28;20082;-74
2024/02/08 11:26:57;;;;;;;21.15;7.82;;;;;;;;;;4997639;28;20049;-74
2024/02/08 11:29:26;;;;;;;;;;;;;;;;;;4997670;28;20057;-75
2024/02/08 11:31:55;;;;;;;;;;;;;;;;;;4997891;28;19928;-74
2024/02/08 11:34:33;;;;;;;16.80;6.78;;;;;;;;;;5000471;28;19994;-75
2024/02/08 11:37:15;;;;;;;15.85;6.65;;;;;;;;;;4983162;28;20521;-75
2024/02/08 11:39:46;;;;;;;21.98;6.95;;;;;;;;;;4987679;28;20476;-75
2024/02/08 11:42:17;;;;;;;21.92;7.70;;;;;;;;;;5001254;28;20387;-75
2024/02/08 11:44:44;;;;;;;20.17;7.13;;;;;;;;;;5002030;28;20053;-74
2024/02/08 11:47:18;;;;;;;21.42;8.00;;;;;;;;;;5006415;28;20049;-73
2024/02/08 11:50:00;;;;;;;19.00;8.02;;;;;;;;;;4979270;28;20042;-73
2024/02/08 11:52:27;;;;;;;24.70;8.30;;;;;;;;;;4985075;28;20561;-73
2024/02/08 11:55:05;;;;;;;20.98;8.85;;;;;;;;;;4991520;28;20520;-74
2024/02/08 11:57:36;;;;;;;30.38;9.50;;;;;;;;;;5007654;28;20049;-75
2024/02/08 12:00:15;;;;;;;18.52;7.75;;;;;;;;;;4995695;28;20086;-74
2024/02/08 12:02:47;;;;;;;20.83;8.65;;;;;;;;;;4998273;28;20046;-74
2024/02/08 12:05:20;;;;;;;26.25;7.93;;;;;;;;;;4999993;28;20048;-74
2024/02/08 12:07:48;;;;;;;18.35;7.63;;;;;;;;;;5001107;28;20045;-74
2024/02/08 12:10:15;;;;;;;17.65;7.20;;;;;;;;;;4998752;28;20041;-74
2024/02/08 12:12:45;;;;;;;19.17;8.50;;;;;;;;;;4997636;28;20054;-71
2024/02/08 12:15:12;;;;;;;22.52;8.15;;;;;;;;;;4991208;28;20054;-73
2024/02/08 12:17:48;;;;;;;18.90;8.23;;;;;;;;;;4976605;28;20108;-73
2024/02/08 12:20:15;;;;;;;23.05;8.88;;;;;;;;;;4985384;28;20146;-71
2024/02/08 12:22:42;;;;;;;27.85;8.75;;;;;;;;;;5005028;28;20046;-73
2024/02/08 12:25:15;;;;;;;17.73;8.60;;;;;;;;;;5002127;28;20050;-73
2024/02/08 12:27:48;;;;;;;19.00;7.93;;;;;;;;;;5004451;28;20133;-74
2024/02/08 12:30:28;;;;;;;12.93;6.88;;;;;;;;;;4989606;28;20751;-73
2024/02/08 12:32:57;;;;;;;24.63;8.43;;;;;;;;;;5001808;28;20053;-73
2024/02/08 12:35:27;;;;;;;16.08;7.38;;;;;;;;;;4986536;28;20383;-72
2024/02/08 12:37:58;;;;;;;25.95;8.95;;;;;;;;;;4985062;28;20499;-72
2024/02/08 12:40:29;;;;;;;21.95;8.48;;;;;;;;;;5007539;28;20062;-71
2024/02/08 12:42:56;;;;;;;20.00;8.45;;;;;;;;;;5003563;28;20459;-73
2024/02/08 12:45:23;;;;;;;19.60;7.47;;;;;;;;;;5005950;28;20138;-72
2024/02/08 12:47:52;;;;;;;21.35;7.10;;;;;;;;;;5002255;28;20037;-72
2024/02/08 12:50:21;;;;;;;14.80;6.32;;;;;;;;;;4988481;28;20423;-73
2024/02/08 12:52:57;;;;;;;13.98;6.65;;;;;;;;;;4991373;28;20373;-74
2024/02/08 12:55:32;;;;;;;18.75;7.07;;;;;;;;;;4995187;28;20440;-75
2024/02/08 12:58:01;;;;;;;18.40;6.97;;;;;;;;;;4972091;28;20050;-75
2024/02/08 13:00:33;;;;;;;15.60;6.70;;;;;;;;;;4987631;28;20050;-76
2024/02/08 13:03:05;;;;;;;20.33;8.50;;;;;;;;;;4987465;28;20050;-75
2024/02/08 13:05:36;;;;;;;15.07;7.03;;;;;;;;;;4996781;28;20050;-74
2024/02/08 13:08:03;;;;;;;18.75;7.15;;;;;;;;;;4993866;28;20078;-75
2024/02/08 13:10:31;;;;;;;11.43;5.63;;;;;;;;;;4993992;28;20104;-74
2024/02/08 13:13:09;;;;;;;16.92;7.13;;;;;;;;;;4987041;28;20056;-74
2024/02/08 13:15:37;;;;;;;13.55;6.47;;;;;;;;;;4994477;28;20073;-74
2024/02/08 13:18:09;;;;;;;16.83;6.43;;;;;;;;;;4985190;28;20145;-74
2024/02/08 13:20:36;;;;;;;20.48;6.63;;;;;;;;;;4991560;28;20655;-75
2024/02/08 13:23:09;;;;;;;18.27;5.43;;;;;;;;;;5006079;28;20108;-75
2024/02/08 13:25:35;;;;;;;9.15;4.85;;;;;;;;;;5001290;28;20054;-74
2024/02/08 13:28:03;;;;;;;12.88;5.05;;;;;;;;;;5004698;28;20128;-75
2024/02/08 13:30:29;;;;;;;14.20;4.70;;;;;;;;;;4992752;28;20299;-74
2024/02/08 13:32:57;;;;;;;11.35;4.38;;;;;;;;;;5007097;28;20519;-75
2024/02/08 13:35:26;;;;;;;10.00;4.50;;;;;;;;;;4989504;28;20692;-75
2024/02/08 13:37:53;;;;;;;10.57;4.40;;;;;;;;;;5007120;28;20715;-74
2024/02/08 13:40:22;;;;;;;12.82;4.30;;;;;;;;;;5001074;28;20052;-75
2024/02/08 13:42:49;;;;;;;13.15;4.50;;;;;;;;;;4980783;28;20046;-75
2024/02/08 13:45:24;;;;;;;11.13;3.97;;;;;;;;;;4999680;28;20044;-74
2024/02/08 13:47:56;;;;;;;7.78;3.65;;;;;;;;;;4975924;28;20125;-74
2024/02/08 13:50:28;;;;;;;12.13;4.15;;;;;;;;;;4992335;28;20157;-75
2024/02/08 13:52:58;;;;;;;11.90;4.65;;;;;;;;;;4995830;28;20100;-74
2024/02/08 13:55:31;;;;;;;10.52;3.17;;;;;;;;;;5002428;28;20131;-75
2024/02/08 13:58:17;;;;;;;10.50;3.45;;;;;;;;;;4990572;28;20046;-75
2024/02/08 14:00:44;;;;;;;7.80;3.17;;;;;;;;;;4991258;28;20076;-75
2024/02/08 14:03:10;;;;;;;6.55;2.47;;;;;;;;;;4995752;28;20296;-73
2024/02/08 14:05:41;;;;;;;8.32;2.80;;;;;;;;;;4990498;28;20759;-72
2024/02/08 14:08:16;;;;;;;9.90;2.97;;;;;;;;;;5001145;28;20046;-72
2024/02/08 14:10:44;;;;;;;10.07;2.83;;;;;;;;;;4994703;28;20117;-72
2024/02/08 14:13:13;;;;;;;8.10;2.63;;;;;;;;;;4987507;28;20471;-73
2024/02/08 14:15:45;;;;;;;9.05;3.10;;;;;;;;;;4984945;28;20705;-73
2024/02/08 14:18:30;;;;;;;10.32;2.70;;;;;;;;;;4999815;28;20050;-73
2024/02/08 14:21:03;;;;;;;7.47;2.83;;;;;;;;;;4995313;28;20130;-73
2024/02/08 14:23:30;;;;;;;5.50;2.22;;;;;;;;;;4984340;28;20061;-74
2024/02/08 14:26:09;;;;;;;5.68;2.75;;;;;;;;;;4990345;28;20153;-74
2024/02/08 14:28:47;;;;;;;9.98;2.72;;;;;;;;;;4986779;28;20499;-74
2024/02/08 14:31:17;;;;;;;6.93;2.42;;;;;;;;;;4993888;28;20050;-74
2024/02/08 14:33:46;;;;;;;4.40;2.20;;;;;;;;;;5003076;28;20046;-73
2024/02/08 14:36:14;;;;;;;6.97;2.35;;;;;;;;;;5004708;28;20062;-73
2024/02/08 14:38:44;;;;;;;4.47;2.47;;;;;;;;;;5004293;28;20046;-73
2024/02/08 14:41:25;;;;;;;6.65;2.60;;;;;;;;;;4994013;28;21139;-72
2024/02/08 14:43:54;;;;;;;9.25;2.63;;;;;;;;;;5006114;28;20141;-74
2024/02/08 14:46:26;;;;;;;6.18;2.38;;;;;;;;;;4984350;28;20058;-72
2024/02/08 14:48:53;;;;;;;8.65;2.03;;;;;;;;;;5005777;28;20104;-72
2024/02/08 14:53:53;;;;;;;6.13;2.65;;;;;;;;;;5002074;28;20085;-73
2024/02/08 14:56:22;;;;;;;8.25;3.10;;;;;;;;;;4977927;28;20705;-72
2024/02/08 15:01:39;;;;;;;5.20;2.45;;;;;;;;;;5002367;28;20516;-73
2024/02/08 15:04:17;;;;;;;8.73;3.17;;;;;;;;;;5000859;28;20061;-73
2024/02/08 15:07:05;;;;;;;6.80;3.08;;;;;;;;;;5004590;28;20433;-73
2024/02/08 15:14:45;;;;;;;5.53;3.17;;;;;;;;;;5000631;28;20399;-74
2024/02/08 15:17:18;;;;;;;5.53;3.00;;;;;;;;;;4988578;28;20157;-74
2024/02/08 15:19:48;;;;;;;5.97;2.92;;;;;;;;;;4991207;28;20089;-74
2024/02/08 15:22:18;;;;;;;5.47;3.05;;;;;;;;;;4994889;28;20056;-74
2024/02/08 15:24:48;;;;;;;6.05;2.13;;;;;;;;;;5005882;28;20050;-74
2024/02/08 15:27:18;;;;;;;4.93;2.65;;;;;;;;;;4984823;28;20139;-74
2024/02/08 15:29:51;;;;;;;6.88;2.67;;;;;;;;;;4990149;28;20491;-74
2024/02/08 15:32:18;;;;;;;5.68;2.08;;;;;;;;;;4997697;28;20109;-74
2024/02/08 15:37:32;;;;;;;3.65;2.38;;;;;;;;;;5005171;28;20049;-75
2024/02/08 15:42:39;;;;;;;5.38;2.88;;;;;;;;;;5000531;28;20550;-74
2024/02/08 15:45:13;;;;;;;3.92;2.47;;;;;;;;;;4994094;28;20058;-74
2024/02/08 15:48:03;;;;;;;4.47;2.67;;;;;;;;;;4987668;28;20057;-74
2024/02/08 15:50:36;;;;;;;6.07;3.03;;;;;;;;;;4991376;28;20054;-74
2024/02/08 15:53:09;;;;;;;6.35;2.75;;;;;;;;;;5001724;28;20057;-74
2024/02/08 15:55:39;;;;;;;6.13;2.88;;;;;;;;;;5007173;28;20038;-75
2024/02/08 15:58:25;;;;;;;5.32;2.90;;;;;;;;;;5006974;28;20054;-74
2024/02/08 16:01:10;;;;;;;6.72;2.53;;;;;;;;;;4990717;28;20042;-74
2024/02/08 16:03:52;;;;;;;6.07;2.38;;;;;;;;;;4985010;28;20145;-75
2024/02/08 16:06:54;;;;;;;4.55;2.63;;;;;;;;;;4986576;28;20051;-74
2024/02/08 16:09:35;;;;;;;3.08;2.28;;;;;;;;;;4994496;28;20413;-74
2024/02/08 16:14:59;;;;;;;6.05;2.42;;;;;;;;;;4956890;28;20132;-75
2024/02/08 16:23:02;;;;;;;5.30;2.80;;;;;;;;;;5004634;28;20128;-75
2024/02/08 16:25:44;;;;;;;5.97;2.90;;;;;;;;;;4990710;28;20054;-74
2024/02/08 16:28:20;;;;;;;4.95;3.10;;;;;;;;;;4993179;28;20050;-74
2024/02/08 16:33:33;;;;;;;5.25;3.17;;;;;;;;;;4993391;28;20068;-73
2024/02/08 16:36:09;;;;;;;4.97;3.15;;;;;;;;;;5001086;28;20042;-73
2024/02/08 16:38:37;;;;;;;6.38;3.17;;;;;;;;;;5002122;28;20037;-73
2024/02/08 16:41:06;;;;;;;5.40;3.80;;;;;;;;;;4991135;28;20065;-73
2024/02/08 16:43:32;;;;;;;6.82;4.00;;;;;;;;;;5003283;28;20046;-74
2024/02/08 16:46:11;;;;;;;5.30;3.25;;;;;;;;;;5008182;28;20133;-73
2024/02/08 16:48:44;;;;;;;4.93;3.25;;;;;;;;;;4983736;28;20573;-74
2024/02/08 16:51:16;;;;;;;6.40;3.28;;;;;;;;;;4995751;28;20045;-74
2024/02/08 16:53:49;;;;;;;7.38;3.80;;;;;;;;;;5010926;28;20132;-74
2024/02/08 16:56:21;;;;;;;5.60;3.80;;;;;;;;;;4997895;28;20057;-74
2024/02/08 16:58:55;;;;;;;5.78;2.97;;;;;;;;;;5007073;28;20482;-74
2024/02/08 17:01:27;;;;;;;6.55;3.47;;;;;;;;;;4982818;28;20062;-75
2024/02/08 17:04:16;;;;;;;5.43;3.75;;;;;;;;;;4988119;28;20591;-75
2024/02/08 17:06:52;;;;;;;6.47;3.97;;;;;;;;;;4981488;28;20054;-75
2024/02/08 17:09:24;;;;;;;9.93;5.25;;;;;;;;;;5001586;28;20050;-74
2024/02/08 17:12:00;;;;;;;9.75;4.68;;;;;;;;;;4997780;28;20038;-74
2024/02/08 17:14:36;;;;;;;5.25;3.50;;;;;;;;;;4982762;28;20464;-75
2024/02/08 17:17:13;;;;;;;6.28;4.10;;;;;;;;;;4996446;28;20049;-74
2024/02/08 17:19:46;;;;;;;5.90;3.83;;;;;;;;;;4991446;28;20042;-74
2024/02/08 17:30:08;;;;;;;7.43;4.30;;;;;;;;;;4992531;28;20125;-75
2024/02/08 17:32:42;;;;;;;6.30;3.90;;;;;;;;;;4996495;28;20035;-74
2024/02/08 17:35:09;;;;;;;6.47;4.63;;;;;;;;;;4985285;28;20046;-74
2024/02/08 17:37:44;;;;;;;6.20;4.13;;;;;;;;;;4966465;28;20100;-73
2024/02/08 17:40:18;;;;;;;7.65;4.32;;;;;;;;;;5006818;28;20479;-73
2024/02/08 17:42:46;;;;;;;7.50;4.82;;;;;;;;;;4989762;28;20061;-74
2024/02/08 17:45:12;;;;;;;9.85;5.45;;;;;;;;;;4999844;28;20177;-75